Aérodrome :
LOGIN :

S'inscrire | Disclaimer

   EN    FR    IT 

 










Légende :    VFR   VFR Marginal   IFR   IFR Intensif   IFR Très Intensif
Visi : 
Plafond : 
>= 8 km
>= 3000ft
5 à 8 km
1000 à 3000 ft
1500m à 5 km
500 à 1000 ft
800 à 1500m
200 à 500 ft
< 800m
< 200 ft
Symboles :   Orages  Brouillard  Fortes neiges  Fortes précipitations  Vent > 20 kt
SIGMETs :   Divers  Orages  Givrage  Turbulence  Onde Orograph.  Cendres Volcan.






- Altitude de l'aérodrome : 121 ft
- Code IATA : HUY


EGNJ - Humberside

DERNIER METAR :
  • 090920Z 32016KT 9999 FEW020 06/01 Q1005

METARs EXPIRÉS :
  • 090850Z 31017KT 9999 FEW017 06/02 Q1003
  • 090820Z 30017KT 9999 FEW017 07/02 Q1002
  • 090750Z 31020KT 9999 FEW023 SCT031 07/02 Q1000
  • 090720Z 31018KT 9999 FEW032 07/03 Q0998
  • 090650Z 30016KT 9999 FEW032 07/03 Q0997

TAF TAF EGNJ
Valide du 09 à 09h jusqu'au 09 à 18h UTC


090804Z 0909/0918 32015G25KT 9999 FEW025
TEMPO 0909/0912 32022G35KT
PROB30
TEMPO 0909/0911 7000 SHRA
BECMG 0915/0918 26006KT
ATIS : +44 1652 682 020



MET'MAP, la Météo Aéronautique d'un coup d'oeil ! - Copyright ORBIFLY Décembre 2007 - Disclaimer

ORBIFLY MET'MAP TEAM :

Programmation & Développement : Alexandra Zaïnal
Sur une idée originale de : Baudouin d'Aumeries
Assistance à la programmation : Marc-Olivier Méhu
Soutien technique & logistique : Manuel Goepfert

Contact : metmap@orbifly.com




SOURCES & CREDITS :

   NOAA